createdAt,value
2018-11-20T00:00:25.475Z,15.03
2018-11-20T00:03:11.696Z,14.30
2018-11-20T00:05:54.641Z,16.40
2018-11-20T00:08:41.071Z,14.03
2018-11-20T00:11:31.533Z,17.13
2018-11-20T00:14:20.958Z,17.20
2018-11-20T00:17:07.192Z,15.17
2018-11-20T00:20:09.771Z,15.80
2018-11-20T00:22:56.705Z,16.47
2018-11-20T00:25:50.237Z,17.73
2018-11-20T00:28:40.475Z,18.00
2018-11-20T00:31:24.068Z,17.77
2018-11-20T00:34:10.287Z,20.63
2018-11-20T00:36:56.679Z,19.57
2018-11-20T00:39:52.968Z,19.80
2018-11-20T00:42:49.396Z,17.03
2018-11-20T00:45:45.998Z,18.20
2018-11-20T00:48:32.084Z,18.47
2018-11-20T00:51:18.577Z,16.40
2018-11-20T00:54:09.099Z,18.47
2018-11-20T00:56:55.390Z,20.13
2018-11-20T00:59:42.093Z,19.97
2018-11-20T01:02:29.839Z,21.97
2018-11-20T01:05:20.137Z,19.80
2018-11-20T01:08:06.311Z,23.07
2018-11-20T01:10:52.512Z,20.07
2018-11-20T01:13:45.777Z,20.90
2018-11-20T01:16:51.337Z,21.97
2018-11-20T01:19:36.091Z,20.20
2018-11-20T01:22:38.675Z,23.27
2018-11-20T01:25:32.304Z,24.83
2018-11-20T01:28:38.231Z,20.63
2018-11-20T01:31:25.828Z,22.47
2018-11-20T01:34:16.114Z,20.40
2018-11-20T01:37:09.681Z,22.47
2018-11-20T01:39:45.109Z,24.53
2018-11-20T01:42:28.852Z,24.93
2018-11-20T01:45:28.418Z,24.83
2018-11-20T01:48:30.855Z,26.03
2018-11-20T01:51:17.373Z,23.07
2018-11-20T01:54:20.312Z,24.93
2018-11-20T01:56:59.028Z,20.93
2018-11-20T01:59:45.075Z,23.93
2018-11-20T02:02:31.034Z,23.07
2018-11-20T02:05:18.682Z,20.87
2018-11-20T02:08:06.304Z,25.47
2018-11-20T02:11:06.069Z,25.63
2018-11-20T02:14:03.815Z,24.73
2018-11-20T02:16:45.437Z,26.87
2018-11-20T02:19:31.541Z,25.57
2018-11-20T02:22:17.987Z,23.27
2018-11-20T02:25:05.505Z,23.67
2018-11-20T02:27:53.439Z,22.17
2018-11-20T02:30:41.725Z,21.73
2018-11-20T02:33:26.310Z,23.93
2018-11-20T02:36:11.716Z,23.53
2018-11-20T02:38:59.343Z,20.40
2018-11-20T02:41:52.999Z,23.60
2018-11-20T02:44:39.028Z,22.63
2018-11-20T02:47:24.941Z,26.80
2018-11-20T02:50:11.411Z,23.77
2018-11-20T02:52:49.941Z,24.63
2018-11-20T02:55:31.705Z,25.53
2018-11-20T02:58:28.462Z,25.97
2018-11-20T03:01:14.009Z,23.90
2018-11-20T03:04:13.859Z,28.87
2018-11-20T03:06:50.515Z,26.40
2018-11-20T03:09:38.122Z,25.47
2018-11-20T03:12:24.110Z,21.67
2018-11-20T03:15:10.417Z,21.63
2018-11-20T03:17:55.724Z,24.30
2018-11-20T03:20:38.135Z,24.33
2018-11-20T03:23:25.878Z,26.07
2018-11-20T03:26:20.986Z,24.43
2018-11-20T03:29:30.999Z,22.37
2018-11-20T03:32:10.664Z,22.80
2018-11-20T03:34:50.492Z,20.10
2018-11-20T03:37:44.062Z,23.83
2018-11-20T03:40:32.335Z,22.43
2018-11-20T03:43:32.058Z,23.50
2018-11-20T03:46:19.669Z,20.83
2018-11-20T03:49:05.992Z,25.73
2018-11-20T03:51:52.528Z,24.07
2018-11-20T03:54:38.799Z,23.77
2018-11-20T03:57:20.368Z,23.47
2018-11-20T04:00:09.472Z,25.67
2018-11-20T04:03:05.981Z,20.70
2018-11-20T04:05:56.388Z,26.93
2018-11-20T04:08:49.945Z,22.43
2018-11-20T04:11:30.101Z,20.90
2018-11-20T04:14:16.353Z,22.43
2018-11-20T04:17:02.703Z,24.90
2018-11-20T04:20:02.322Z,22.40
2018-11-20T04:22:42.930Z,23.43
2018-11-20T04:25:28.946Z,22.30
2018-11-20T04:28:10.044Z,22.63
2018-11-20T04:31:01.629Z,22.23
2018-11-20T04:34:04.880Z,28.87
2018-11-20T04:37:42.448Z,23.97
2018-11-20T04:40:17.291Z,23.40
2018-11-20T04:43:13.921Z,24.13
2018-11-20T04:46:02.361Z,25.77
2018-11-20T04:48:38.110Z,26.30
2018-11-20T04:51:24.989Z,24.37
2018-11-20T04:54:21.244Z,26.00
2018-11-20T04:57:07.588Z,24.10
2018-11-20T04:59:53.341Z,23.27
2018-11-20T05:02:40.539Z,27.73
2018-11-20T05:05:25.986Z,25.93
2018-11-20T05:08:28.175Z,27.00
2018-11-20T05:11:17.038Z,22.43
2018-11-20T05:14:21.939Z,25.20
2018-11-20T05:17:15.132Z,23.63
2018-11-20T05:20:00.879Z,21.77
2018-11-20T05:22:46.363Z,25.60
2018-11-20T05:25:31.745Z,28.20
2018-11-20T05:28:17.891Z,23.27
2018-11-20T05:31:05.097Z,24.70
2018-11-20T05:33:50.737Z,24.60
2018-11-20T05:36:40.823Z,23.03
2018-11-20T05:39:29.924Z,24.77
2018-11-20T05:42:06.224Z,27.47
2018-11-20T05:44:52.009Z,23.63
2018-11-20T05:47:39.006Z,24.63
2018-11-20T05:50:24.849Z,26.83
2018-11-20T05:53:15.197Z,31.47
2018-11-20T05:56:00.624Z,27.90
2018-11-20T05:58:48.121Z,26.37
2018-11-20T06:01:30.747Z,27.37
2018-11-20T06:04:17.981Z,24.67
2018-11-20T06:06:58.441Z,25.10
2018-11-20T06:09:43.887Z,29.80
2018-11-20T06:12:29.516Z,27.17
2018-11-20T06:15:15.021Z,29.93
2018-11-20T06:17:58.460Z,28.70
2018-11-20T06:20:42.981Z,29.13
2018-11-20T06:23:26.355Z,27.10
2018-11-20T06:26:19.566Z,37.97
2018-11-20T06:28:56.946Z,28.80
2018-11-20T06:31:44.035Z,31.67
2018-11-20T06:34:31.412Z,30.63
2018-11-20T06:37:21.528Z,27.93
2018-11-20T06:40:07.325Z,26.90
2018-11-20T06:42:52.965Z,28.47
2018-11-20T06:45:38.605Z,27.43
2018-11-20T06:48:40.511Z,25.93
2018-11-20T06:51:31.870Z,27.17
2018-11-20T06:54:17.203Z,24.87
2018-11-20T06:57:03.778Z,26.33
2018-11-20T06:59:56.759Z,28.60
2018-11-20T07:02:49.657Z,27.80
2018-11-20T07:05:35.409Z,26.47
2018-11-20T07:08:20.901Z,23.60
2018-11-20T07:10:59.609Z,27.13
2018-11-20T07:13:50.882Z,26.97
2018-11-20T07:16:50.845Z,27.27
2018-11-20T07:19:45.332Z,27.37
2018-11-20T07:22:25.978Z,25.93
2018-11-20T07:25:15.669Z,29.27
2018-11-20T07:28:01.403Z,27.70
2018-11-20T07:31:03.666Z,26.53
2018-11-20T07:33:50.857Z,31.13
2018-11-20T07:36:46.604Z,27.77
2018-11-20T07:39:32.308Z,30.70
2018-11-20T07:42:24.324Z,27.20
2018-11-20T07:45:14.285Z,29.00
2018-11-20T07:48:16.862Z,29.07
2018-11-20T07:51:02.651Z,27.87
2018-11-20T07:53:58.754Z,28.20
2018-11-20T07:56:45.955Z,27.40
2018-11-20T07:59:44.986Z,27.43
2018-11-20T08:02:20.915Z,27.00
2018-11-20T08:05:05.302Z,25.67
2018-11-20T08:07:50.776Z,28.27
2018-11-20T08:10:36.169Z,27.57
2018-11-20T08:13:29.528Z,26.83
2018-11-20T08:16:12.991Z,28.27
2018-11-20T08:18:58.959Z,27.30
2018-11-20T08:21:51.894Z,27.40
2018-11-20T08:24:46.088Z,25.07
2018-11-20T08:27:39.498Z,28.43
2018-11-20T08:30:27.400Z,25.80
2018-11-20T08:33:32.928Z,26.03
2018-11-20T08:36:25.643Z,25.83
2018-11-20T08:39:21.710Z,28.83
2018-11-20T08:42:11.511Z,26.53
2018-11-20T08:44:57.345Z,30.50
2018-11-20T08:47:43.161Z,24.00
2018-11-20T08:50:21.179Z,31.67
2018-11-20T08:52:58.000Z,29.53
2018-11-20T08:55:39.659Z,28.53
2018-11-20T08:58:26.881Z,28.17
2018-11-20T09:01:25.852Z,28.57
2018-11-20T09:04:15.836Z,26.67
2018-11-20T09:06:52.906Z,26.40
2018-11-20T09:09:38.665Z,27.53
2018-11-20T09:12:16.109Z,26.80
2018-11-20T09:15:03.428Z,26.53
2018-11-20T09:18:05.845Z,30.30
2018-11-20T09:20:51.530Z,30.50
2018-11-20T09:23:47.207Z,29.97
2018-11-20T09:26:30.341Z,29.33
2018-11-20T09:29:17.562Z,24.83
2018-11-20T09:32:06.458Z,28.67
2018-11-20T09:34:52.328Z,30.63
2018-11-20T09:37:37.026Z,28.67
2018-11-20T09:40:48.170Z,25.57
2018-11-20T09:43:38.332Z,26.20
2018-11-20T09:46:23.823Z,27.13
2018-11-20T09:49:09.507Z,29.00
2018-11-20T09:51:50.699Z,31.40
2018-11-20T09:54:49.215Z,25.20
2018-11-20T09:57:33.682Z,27.13
2018-11-20T10:00:18.203Z,30.57
2018-11-20T10:03:04.605Z,27.10
2018-11-20T10:05:57.387Z,26.93
2018-11-20T10:08:43.782Z,29.60
2018-11-20T10:11:29.391Z,28.10
2018-11-20T10:14:15.162Z,32.90
2018-11-20T10:17:07.972Z,32.63
2018-11-20T10:20:04.207Z,33.30
2018-11-20T10:23:03.076Z,27.07
2018-11-20T10:25:44.431Z,28.50
2018-11-20T10:28:37.349Z,28.02
2018-11-20T10:31:22.804Z,30.50
2018-11-20T10:34:03.829Z,26.87
2018-11-20T10:36:53.887Z,29.47
2018-11-20T10:39:47.088Z,30.60
2018-11-20T10:42:32.855Z,32.17
2018-11-20T10:45:19.107Z,32.03
2018-11-20T10:48:01.701Z,31.07
2018-11-20T10:50:47.246Z,30.77
2018-11-20T10:53:42.995Z,31.47
2018-11-20T10:56:45.164Z,27.70
2018-11-20T10:59:30.736Z,28.47
2018-11-20T11:02:16.345Z,31.37
2018-11-20T11:05:02.066Z,34.50
2018-11-20T11:07:48.362Z,30.23
2018-11-20T11:10:41.371Z,31.27
2018-11-20T11:13:28.577Z,31.83
2018-11-20T11:16:20.309Z,30.57
2018-11-20T11:19:10.612Z,33.40
2018-11-20T11:21:56.372Z,26.27
2018-11-20T11:24:42.187Z,27.90
2018-11-20T11:27:27.660Z,26.17
2018-11-20T11:30:13.487Z,24.93
2018-11-20T11:32:59.208Z,26.43
2018-11-20T11:35:36.820Z,29.47
2018-11-20T11:38:26.718Z,25.80
2018-11-20T11:41:12.634Z,27.33
2018-11-20T11:44:02.747Z,28.00
2018-11-20T11:46:49.937Z,23.50
2018-11-20T11:49:35.676Z,29.73
2018-11-20T11:52:10.112Z,27.30
2018-11-20T11:54:46.063Z,30.60
2018-11-20T11:57:51.303Z,27.57
2018-11-20T12:00:38.507Z,25.83
2018-11-20T12:03:20.374Z,27.63
2018-11-20T12:06:07.603Z,27.10
2018-11-20T12:08:46.626Z,30.30
2018-11-20T12:11:32.322Z,24.37
2018-11-20T12:14:19.799Z,29.63
2018-11-20T12:17:13.911Z,32.53
2018-11-20T12:19:50.183Z,26.83
2018-11-20T12:22:35.677Z,27.70
2018-11-20T12:25:21.439Z,27.33
2018-11-20T12:28:05.291Z,29.33
2018-11-20T12:30:40.665Z,26.93
2018-11-20T12:33:18.416Z,28.80
2018-11-20T12:36:03.101Z,32.67
2018-11-20T12:38:50.304Z,30.20
2018-11-20T12:41:36.093Z,29.63
2018-11-20T12:44:26.301Z,27.53
2018-11-20T12:47:15.213Z,29.67
2018-11-20T12:50:18.840Z,28.47
2018-11-20T12:53:14.755Z,27.90
2018-11-20T12:56:03.117Z,24.60
2018-11-20T12:58:50.333Z,24.30
2018-11-20T13:01:36.127Z,22.67
2018-11-20T13:04:41.550Z,19.80
2018-11-20T13:07:22.935Z,21.10
2018-11-20T13:10:14.294Z,17.97
2018-11-20T13:13:13.312Z,19.87
2018-11-20T13:15:49.409Z,18.73
2018-11-20T13:18:41.514Z,22.00
2018-11-20T13:21:22.327Z,21.83
2018-11-20T13:24:18.186Z,17.30
2018-11-20T13:27:03.743Z,21.53
2018-11-20T13:30:05.862Z,20.43
2018-11-20T13:32:53.117Z,15.67
2018-11-20T13:35:46.811Z,29.90
2018-11-20T13:38:25.462Z,20.10
2018-11-20T13:41:20.606Z,15.70
2018-11-20T13:43:59.416Z,18.47
2018-11-20T13:46:40.801Z,16.70
2018-11-20T13:49:33.429Z,17.13
2018-11-20T13:52:20.623Z,20.53
2018-11-20T13:55:19.894Z,15.97
2018-11-20T13:58:05.762Z,16.60
2018-11-20T14:00:51.280Z,15.77
2018-11-20T14:03:42.794Z,17.10
2018-11-20T14:06:23.845Z,15.50
2018-11-20T14:09:19.296Z,17.47
2018-11-20T14:12:06.546Z,18.07
2018-11-20T14:14:51.817Z,18.83
2018-11-20T14:17:44.224Z,18.13
2018-11-20T14:20:40.329Z,20.00
2018-11-20T14:23:30.409Z,15.10
2018-11-20T14:26:15.997Z,21.13
2018-11-20T14:28:57.765Z,17.13
2018-11-20T14:31:47.571Z,15.07
2018-11-20T14:34:26.829Z,18.77
2018-11-20T14:37:11.791Z,17.37
2018-11-20T14:40:01.543Z,18.70
2018-11-20T14:42:52.995Z,23.73
2018-11-20T14:45:40.308Z,29.13
2018-11-20T14:48:42.281Z,26.70
2018-11-20T14:51:29.999Z,28.27
2018-11-20T14:54:07.340Z,23.00
2018-11-20T14:56:48.144Z,27.63
2018-11-20T14:59:34.054Z,51.77
2018-11-20T15:02:19.487Z,30.03
2018-11-20T15:05:01.135Z,28.13
2018-11-20T15:07:46.587Z,26.97
2018-11-20T15:10:36.606Z,31.23
2018-11-20T15:13:22.356Z,27.13
2018-11-20T15:16:27.615Z,25.43
2018-11-20T15:19:27.660Z,26.37
2018-11-20T15:22:21.624Z,28.30
2018-11-20T15:25:14.673Z,24.40
2018-11-20T15:27:53.569Z,23.90
2018-11-20T15:30:39.183Z,28.73
2018-11-20T15:33:24.641Z,28.67
2018-11-20T15:36:20.876Z,26.33
2018-11-20T15:38:55.333Z,27.93
2018-11-20T15:41:36.710Z,25.13
2018-11-20T15:44:41.988Z,30.57
2018-11-20T15:47:23.571Z,25.57
2018-11-20T15:50:19.645Z,26.30
2018-11-20T15:53:21.877Z,31.60
2018-11-20T15:56:14.692Z,27.17
2018-11-20T15:59:00.834Z,25.20
2018-11-20T16:01:46.571Z,23.80
2018-11-20T16:04:34.699Z,23.97
2018-11-20T16:07:30.453Z,22.10
2018-11-20T16:10:03.805Z,23.37
2018-11-20T16:12:39.575Z,21.93
2018-11-20T16:15:35.601Z,22.90
2018-11-20T16:18:10.399Z,26.50
2018-11-20T16:21:05.660Z,23.40
2018-11-20T16:24:03.733Z,22.83
2018-11-20T16:26:49.357Z,20.93
2018-11-20T16:29:48.601Z,22.13
2018-11-20T16:32:45.498Z,22.47
2018-11-20T16:35:38.678Z,22.20
2018-11-20T16:38:26.083Z,26.63
2018-11-20T16:41:31.105Z,25.53
2018-11-20T16:44:18.618Z,22.43
2018-11-20T16:47:04.256Z,25.33
2018-11-20T16:49:52.177Z,24.17
2018-11-20T16:52:54.344Z,21.70
2018-11-20T16:55:37.542Z,26.43
2018-11-20T16:58:19.906Z,22.70
2018-11-20T17:01:22.264Z,24.33
2018-11-20T17:04:04.984Z,23.63
2018-11-20T17:07:04.020Z,21.93
2018-11-20T17:09:49.508Z,24.60
2018-11-20T17:12:36.726Z,26.73
2018-11-20T17:15:31.493Z,26.00
2018-11-20T17:18:10.389Z,23.00
2018-11-20T17:21:03.838Z,26.07
2018-11-20T17:23:53.699Z,21.83
2018-11-20T17:26:55.426Z,24.33
2018-11-20T17:29:41.127Z,22.87
2018-11-20T17:32:43.150Z,36.73
2018-11-20T17:35:28.946Z,23.67
2018-11-20T17:38:14.598Z,29.47
2018-11-20T17:41:00.514Z,27.33
2018-11-20T17:43:50.490Z,25.07
2018-11-20T17:46:30.097Z,29.60
2018-11-20T17:49:25.501Z,26.90
2018-11-20T17:52:24.977Z,25.40
2018-11-20T17:55:10.726Z,24.87
2018-11-20T17:58:16.096Z,25.50
2018-11-20T18:01:01.650Z,26.90
2018-11-20T18:03:47.342Z,24.03
2018-11-20T18:06:52.540Z,20.73
2018-11-20T18:09:38.133Z,22.17
2018-11-20T18:12:23.612Z,26.23
2018-11-20T18:15:09.506Z,22.60
2018-11-20T18:18:05.652Z,23.40
2018-11-20T18:20:58.601Z,20.27
2018-11-20T18:23:40.029Z,22.87
2018-11-20T18:26:26.037Z,23.03
2018-11-20T18:29:11.680Z,18.23
2018-11-20T18:31:57.211Z,24.10
2018-11-20T18:34:50.197Z,24.13
2018-11-20T18:37:31.251Z,24.13
2018-11-20T18:40:29.108Z,23.93
2018-11-20T18:43:08.177Z,23.93
2018-11-20T18:46:07.364Z,23.30
2018-11-20T18:48:49.994Z,25.70
2018-11-20T18:51:27.123Z,23.10
2018-11-20T18:54:14.785Z,22.30
2018-11-20T18:57:00.193Z,26.27
2018-11-20T18:59:46.280Z,26.00
2018-11-20T19:02:32.097Z,23.40
2018-11-20T19:05:13.837Z,22.73
2018-11-20T19:08:01.011Z,29.47
2018-11-20T19:11:03.095Z,27.63
2018-11-20T19:13:48.727Z,20.97
2018-11-20T19:16:36.143Z,21.57
2018-11-20T19:19:26.627Z,20.37
2018-11-20T19:22:12.159Z,20.03
2018-11-20T19:25:08.803Z,20.97
2018-11-20T19:27:54.553Z,20.63
2018-11-20T19:30:40.819Z,25.93
2018-11-20T19:33:43.073Z,24.97
2018-11-20T19:36:25.200Z,24.27
2018-11-20T19:39:21.274Z,23.00
2018-11-20T19:42:07.746Z,22.40
2018-11-20T19:44:53.647Z,22.17
2018-11-20T19:47:39.619Z,19.23
2018-11-20T19:50:33.589Z,20.80
2018-11-20T19:53:19.316Z,21.83
2018-11-20T19:56:09.383Z,24.57
2018-11-20T19:58:59.819Z,21.73
2018-11-20T20:01:49.878Z,21.17
2018-11-20T20:04:46.070Z,23.27
2018-11-20T20:07:35.846Z,21.00
2018-11-20T20:10:41.886Z,20.33
2018-11-20T20:13:21.816Z,31.80
2018-11-20T20:16:07.521Z,22.40
2018-11-20T20:18:57.511Z,20.73
2018-11-20T20:22:02.513Z,21.97
2018-11-20T20:24:58.500Z,18.53
2018-11-20T20:27:54.828Z,21.00
2018-11-20T20:30:40.867Z,21.37
2018-11-20T20:33:43.016Z,21.10
2018-11-20T20:36:25.732Z,18.63
2018-11-20T20:39:11.599Z,20.30
2018-11-20T20:42:18.139Z,20.27
2018-11-20T20:45:03.883Z,22.90
2018-11-20T20:47:56.835Z,20.53
2018-11-20T20:50:33.347Z,19.40
2018-11-20T20:53:18.902Z,21.43
2018-11-20T20:56:14.994Z,18.77
2018-11-20T20:59:05.290Z,20.47
2018-11-20T21:01:51.184Z,20.70
2018-11-20T21:04:45.980Z,19.17
2018-11-20T21:07:31.929Z,21.70
2018-11-20T21:10:17.748Z,18.53
2018-11-20T21:12:56.990Z,21.63
2018-11-20T21:15:36.367Z,23.93
2018-11-20T21:18:22.211Z,21.87
2018-11-20T21:21:08.533Z,22.47
2018-11-20T21:24:06.513Z,23.97
2018-11-20T21:26:53.877Z,19.60
2018-11-20T21:29:56.089Z,19.43
2018-11-20T21:32:46.180Z,18.77
2018-11-20T21:35:39.217Z,19.40
2018-11-20T21:38:22.353Z,21.65
2018-11-20T21:41:09.547Z,21.83
2018-11-20T21:44:07.364Z,18.00
2018-11-20T21:46:49.638Z,22.70
2018-11-20T21:49:55.110Z,21.23
2018-11-20T21:52:45.010Z,22.10
2018-11-20T21:55:31.176Z,18.73
2018-11-20T21:58:30.291Z,22.27
2018-11-20T22:01:17.510Z,22.13
2018-11-20T22:04:03.405Z,21.37
2018-11-20T22:06:59.420Z,19.77
2018-11-20T22:09:45.192Z,22.27
2018-11-20T22:12:30.986Z,20.40
2018-11-20T22:15:16.753Z,21.40
2018-11-20T22:18:02.776Z,23.47
2018-11-20T22:21:09.400Z,21.47
2018-11-20T22:26:53.401Z,22.07
2018-11-20T22:30:00.064Z,22.57
2018-11-20T22:35:48.985Z,22.80
2018-11-20T22:38:34.769Z,22.53
2018-11-20T22:41:39.846Z,22.07
2018-11-20T22:44:27.520Z,19.07
2018-11-20T22:47:32.673Z,20.93
2018-11-20T22:50:19.963Z,21.53
2018-11-20T22:52:59.212Z,18.23
2018-11-20T22:55:49.291Z,21.93
2018-11-20T22:58:47.694Z,21.23
2018-11-20T23:04:50.178Z,20.90
2018-11-20T23:07:36.196Z,21.80
2018-11-20T23:10:24.774Z,22.13
2018-11-20T23:13:12.144Z,22.87
2018-11-20T23:18:38.407Z,20.70
2018-11-20T23:21:25.805Z,23.33
2018-11-20T23:26:52.577Z,23.47
2018-11-20T23:29:20.603Z,20.80
2018-11-20T23:31:48.626Z,21.30
2018-11-20T23:34:35.966Z,21.13
2018-11-20T23:40:03.044Z,21.30
2018-11-20T23:42:50.408Z,22.13
2018-11-20T23:48:17.196Z,22.20
2018-11-20T23:51:04.539Z,21.97
2018-11-20T23:53:51.870Z,21.67
2018-11-20T23:56:19.826Z,21.57
2018-11-20T23:59:07.234Z,19.50
